sensor_id;sensor_type;location;lat;lon;timestamp;temperature;humidity
69382;DHT22;56560;50.692;12.844;2023-04-29T00:01:11;10.50;87.80
69382;DHT22;56560;50.692;12.844;2023-04-29T00:03:38;10.50;88.80
69382;DHT22;56560;50.692;12.844;2023-04-29T00:06:03;10.60;88.80
69382;DHT22;56560;50.692;12.844;2023-04-29T00:08:29;10.70;88.30
69382;DHT22;56560;50.692;12.844;2023-04-29T00:10:54;10.80;88.10
69382;DHT22;56560;50.692;12.844;2023-04-29T00:13:20;10.80;87.40
69382;DHT22;56560;50.692;12.844;2023-04-29T00:15:46;10.90;87.40
69382;DHT22;56560;50.692;12.844;2023-04-29T00:18:12;10.90;87.10
69382;DHT22;56560;50.692;12.844;2023-04-29T00:20:38;10.90;86.90
69382;DHT22;56560;50.692;12.844;2023-04-29T00:23:04;10.90;87.00
69382;DHT22;56560;50.692;12.844;2023-04-29T00:25:31;11.00;87.00
69382;DHT22;56560;50.692;12.844;2023-04-29T00:27:56;11.00;86.80
69382;DHT22;56560;50.692;12.844;2023-04-29T00:30:26;11.00;87.30
69382;DHT22;56560;50.692;12.844;2023-04-29T00:32:53;11.00;87.00
69382;DHT22;56560;50.692;12.844;2023-04-29T00:35:19;10.90;87.10
69382;DHT22;56560;50.692;12.844;2023-04-29T00:37:45;10.90;87.80
69382;DHT22;56560;50.692;12.844;2023-04-29T00:40:11;10.90;88.30
69382;DHT22;56560;50.692;12.844;2023-04-29T00:42:39;10.90;88.20
69382;DHT22;56560;50.692;12.844;2023-04-29T00:45:06;10.90;88.80
69382;DHT22;56560;50.692;12.844;2023-04-29T00:47:32;10.90;89.10
69382;DHT22;56560;50.692;12.844;2023-04-29T00:49:58;11.00;89.20
69382;DHT22;56560;50.692;12.844;2023-04-29T00:52:24;11.00;89.30
69382;DHT22;56560;50.692;12.844;2023-04-29T00:54:51;11.00;89.60
69382;DHT22;56560;50.692;12.844;2023-04-29T00:57:18;11.00;89.80
69382;DHT22;56560;50.692;12.844;2023-04-29T00:59:44;11.00;89.90
69382;DHT22;56560;50.692;12.844;2023-04-29T01:02:10;10.90;89.80
69382;DHT22;56560;50.692;12.844;2023-04-29T01:04:36;10.80;90.30
69382;DHT22;56560;50.692;12.844;2023-04-29T01:10:26;10.80;91.10
69382;DHT22;56560;50.692;12.844;2023-04-29T01:15:43;11.00;91.40
69382;DHT22;56560;50.692;12.844;2023-04-29T01:18:48;11.10;90.60
69382;DHT22;56560;50.692;12.844;2023-04-29T01:21:05;11.00;90.40
69382;DHT22;56560;50.692;12.844;2023-04-29T01:23:31;11.00;91.00
69382;DHT22;56560;50.692;12.844;2023-04-29T01:25:57;10.90;91.30
69382;DHT22;56560;50.692;12.844;2023-04-29T01:31:08;11.00;91.30
69382;DHT22;56560;50.692;12.844;2023-04-29T01:41:41;11.20;90.40
69382;DHT22;56560;50.692;12.844;2023-04-29T01:44:14;11.30;90.30
69382;DHT22;56560;50.692;12.844;2023-04-29T01:46:42;11.20;90.10
69382;DHT22;56560;50.692;12.844;2023-04-29T01:49:08;11.30;90.20
69382;DHT22;56560;50.692;12.844;2023-04-29T01:51:34;11.40;89.90
69382;DHT22;56560;50.692;12.844;2023-04-29T01:54:00;11.30;90.10
69382;DHT22;56560;50.692;12.844;2023-04-29T01:56:25;11.40;89.90
69382;DHT22;56560;50.692;12.844;2023-04-29T01:58:51;11.40;89.60
69382;DHT22;56560;50.692;12.844;2023-04-29T02:01:16;11.40;89.60
69382;DHT22;56560;50.692;12.844;2023-04-29T02:03:42;11.40;89.30
69382;DHT22;56560;50.692;12.844;2023-04-29T02:06:08;11.40;89.30
69382;DHT22;56560;50.692;12.844;2023-04-29T02:08:36;11.50;89.40
69382;DHT22;56560;50.692;12.844;2023-04-29T02:11:01;11.60;89.20
69382;DHT22;56560;50.692;12.844;2023-04-29T02:13:27;11.60;89.00
69382;DHT22;56560;50.692;12.844;2023-04-29T02:15:52;11.50;89.00
69382;DHT22;56560;50.692;12.844;2023-04-29T02:18:18;11.50;88.80
69382;DHT22;56560;50.692;12.844;2023-04-29T02:20:44;11.40;89.40
69382;DHT22;56560;50.692;12.844;2023-04-29T02:23:10;11.20;89.50
69382;DHT22;56560;50.692;12.844;2023-04-29T02:25:35;11.10;90.30
69382;DHT22;56560;50.692;12.844;2023-04-29T02:28:01;11.00;91.00
69382;DHT22;56560;50.692;12.844;2023-04-29T02:30:27;10.90;91.20
69382;DHT22;56560;50.692;12.844;2023-04-29T02:32:52;10.90;91.70
69382;DHT22;56560;50.692;12.844;2023-04-29T02:35:18;11.00;91.70
69382;DHT22;56560;50.692;12.844;2023-04-29T02:37:44;11.00;91.70
69382;DHT22;56560;50.692;12.844;2023-04-29T02:40:10;11.10;91.30
69382;DHT22;56560;50.692;12.844;2023-04-29T02:42:36;11.20;91.10
69382;DHT22;56560;50.692;12.844;2023-04-29T02:45:02;11.20;90.60
69382;DHT22;56560;50.692;12.844;2023-04-29T02:47:28;11.20;90.60
69382;DHT22;56560;50.692;12.844;2023-04-29T02:49:54;11.30;90.50
69382;DHT22;56560;50.692;12.844;2023-04-29T02:52:20;11.30;90.50
69382;DHT22;56560;50.692;12.844;2023-04-29T02:54:45;11.40;90.30
69382;DHT22;56560;50.692;12.844;2023-04-29T02:57:11;11.40;90.30
69382;DHT22;56560;50.692;12.844;2023-04-29T02:59:37;11.40;90.10
69382;DHT22;56560;50.692;12.844;2023-04-29T03:02:02;11.50;89.80
69382;DHT22;56560;50.692;12.844;2023-04-29T03:04:28;11.50;89.90
69382;DHT22;56560;50.692;12.844;2023-04-29T03:06:54;11.60;89.40
69382;DHT22;56560;50.692;12.844;2023-04-29T03:09:21;11.60;89.10
69382;DHT22;56560;50.692;12.844;2023-04-29T03:11:47;11.70;88.90
69382;DHT22;56560;50.692;12.844;2023-04-29T03:14:12;11.70;88.80
69382;DHT22;56560;50.692;12.844;2023-04-29T03:16:38;11.80;88.70
69382;DHT22;56560;50.692;12.844;2023-04-29T03:19:04;11.80;88.40
69382;DHT22;56560;50.692;12.844;2023-04-29T03:21:29;11.80;88.20
69382;DHT22;56560;50.692;12.844;2023-04-29T03:23:55;11.80;88.30
69382;DHT22;56560;50.692;12.844;2023-04-29T03:26:21;11.80;88.20
69382;DHT22;56560;50.692;12.844;2023-04-29T03:28:50;11.80;88.20
69382;DHT22;56560;50.692;12.844;2023-04-29T03:31:16;11.70;88.60
69382;DHT22;56560;50.692;12.844;2023-04-29T03:33:42;11.70;88.90
69382;DHT22;56560;50.692;12.844;2023-04-29T03:36:07;11.70;88.70
69382;DHT22;56560;50.692;12.844;2023-04-29T03:38:34;11.70;88.30
69382;DHT22;56560;50.692;12.844;2023-04-29T03:40:59;11.70;88.50
69382;DHT22;56560;50.692;12.844;2023-04-29T03:43:26;11.70;88.70
69382;DHT22;56560;50.692;12.844;2023-04-29T03:45:51;11.80;88.70
69382;DHT22;56560;50.692;12.844;2023-04-29T03:48:17;11.80;88.50
69382;DHT22;56560;50.692;12.844;2023-04-29T03:50:44;11.80;88.50
69382;DHT22;56560;50.692;12.844;2023-04-29T03:53:10;11.90;88.30
69382;DHT22;56560;50.692;12.844;2023-04-29T03:55:36;11.90;88.30
69382;DHT22;56560;50.692;12.844;2023-04-29T03:58:02;11.90;88.00
69382;DHT22;56560;50.692;12.844;2023-04-29T04:00:29;12.00;88.10
69382;DHT22;56560;50.692;12.844;2023-04-29T04:02:56;12.00;87.90
69382;DHT22;56560;50.692;12.844;2023-04-29T04:05:22;12.00;87.70
69382;DHT22;56560;50.692;12.844;2023-04-29T04:07:50;12.00;87.60
69382;DHT22;56560;50.692;12.844;2023-04-29T04:10:17;12.00;87.80
69382;DHT22;56560;50.692;12.844;2023-04-29T04:12:43;12.00;88.20
69382;DHT22;56560;50.692;12.844;2023-04-29T04:15:09;12.00;88.20
69382;DHT22;56560;50.692;12.844;2023-04-29T04:17:34;12.00;88.20
69382;DHT22;56560;50.692;12.844;2023-04-29T04:20:00;12.00;88.10
69382;DHT22;56560;50.692;12.844;2023-04-29T04:22:26;12.10;88.20
69382;DHT22;56560;50.692;12.844;2023-04-29T04:24:54;12.10;87.80
69382;DHT22;56560;50.692;12.844;2023-04-29T04:27:20;12.10;87.90
69382;DHT22;56560;50.692;12.844;2023-04-29T04:29:45;12.20;88.00
69382;DHT22;56560;50.692;12.844;2023-04-29T04:32:11;12.20;87.60
69382;DHT22;56560;50.692;12.844;2023-04-29T04:34:37;12.20;87.50
69382;DHT22;56560;50.692;12.844;2023-04-29T04:37:05;12.20;87.40
69382;DHT22;56560;50.692;12.844;2023-04-29T04:39:31;12.30;87.20
69382;DHT22;56560;50.692;12.844;2023-04-29T04:41:57;12.30;87.10
69382;DHT22;56560;50.692;12.844;2023-04-29T04:44:23;12.30;87.10
69382;DHT22;56560;50.692;12.844;2023-04-29T04:46:52;12.30;87.20
69382;DHT22;56560;50.692;12.844;2023-04-29T04:49:17;12.30;87.10
69382;DHT22;56560;50.692;12.844;2023-04-29T04:51:43;12.30;87.20
69382;DHT22;56560;50.692;12.844;2023-04-29T04:54:10;12.40;86.90
69382;DHT22;56560;50.692;12.844;2023-04-29T04:56:35;12.40;86.10
69382;DHT22;56560;50.692;12.844;2023-04-29T04:59:02;12.30;86.50
69382;DHT22;56560;50.692;12.844;2023-04-29T05:01:28;12.30;87.00
69382;DHT22;56560;50.692;12.844;2023-04-29T05:03:54;12.20;87.10
69382;DHT22;56560;50.692;12.844;2023-04-29T05:06:20;12.30;87.00
69382;DHT22;56560;50.692;12.844;2023-04-29T05:08:46;12.30;86.90
69382;DHT22;56560;50.692;12.844;2023-04-29T05:11:16;12.30;86.40
69382;DHT22;56560;50.692;12.844;2023-04-29T05:13:42;12.40;86.60
69382;DHT22;56560;50.692;12.844;2023-04-29T05:16:08;12.40;86.20
69382;DHT22;56560;50.692;12.844;2023-04-29T05:18:34;12.40;85.90
69382;DHT22;56560;50.692;12.844;2023-04-29T05:20:59;12.40;85.80
69382;DHT22;56560;50.692;12.844;2023-04-29T05:23:25;12.50;85.50
69382;DHT22;56560;50.692;12.844;2023-04-29T05:25:51;12.50;85.50
69382;DHT22;56560;50.692;12.844;2023-04-29T05:28:16;12.60;85.10
69382;DHT22;56560;50.692;12.844;2023-04-29T05:30:42;12.70;85.00
69382;DHT22;56560;50.692;12.844;2023-04-29T05:33:08;12.80;84.70
69382;DHT22;56560;50.692;12.844;2023-04-29T05:35:34;12.80;83.90
69382;DHT22;56560;50.692;12.844;2023-04-29T05:38:00;12.80;83.80
69382;DHT22;56560;50.692;12.844;2023-04-29T05:40:25;12.80;83.60
69382;DHT22;56560;50.692;12.844;2023-04-29T05:42:51;12.80;83.50
69382;DHT22;56560;50.692;12.844;2023-04-29T05:45:17;12.80;83.60
69382;DHT22;56560;50.692;12.844;2023-04-29T05:47:42;12.80;83.70
69382;DHT22;56560;50.692;12.844;2023-04-29T05:50:08;12.90;83.90
69382;DHT22;56560;50.692;12.844;2023-04-29T05:52:34;13.00;83.60
69382;DHT22;56560;50.692;12.844;2023-04-29T05:54:59;13.20;83.30
69382;DHT22;56560;50.692;12.844;2023-04-29T05:57:25;13.40;82.60
69382;DHT22;56560;50.692;12.844;2023-04-29T05:59:51;13.60;81.60
69382;DHT22;56560;50.692;12.844;2023-04-29T06:02:19;13.70;80.90
69382;DHT22;56560;50.692;12.844;2023-04-29T06:04:45;13.50;80.90
69382;DHT22;56560;50.692;12.844;2023-04-29T06:07:12;13.30;82.00
69382;DHT22;56560;50.692;12.844;2023-04-29T06:09:38;13.30;81.90
69382;DHT22;56560;50.692;12.844;2023-04-29T06:12:04;13.10;82.40
69382;DHT22;56560;50.692;12.844;2023-04-29T06:14:30;13.00;83.10
69382;DHT22;56560;50.692;12.844;2023-04-29T06:16:56;12.90;83.20
69382;DHT22;56560;50.692;12.844;2023-04-29T06:19:21;12.80;84.30
69382;DHT22;56560;50.692;12.844;2023-04-29T06:21:47;12.60;85.40
69382;DHT22;56560;50.692;12.844;2023-04-29T06:24:13;12.40;85.30
69382;DHT22;56560;50.692;12.844;2023-04-29T06:26:39;12.30;86.60
69382;DHT22;56560;50.692;12.844;2023-04-29T06:29:04;12.30;86.10
69382;DHT22;56560;50.692;12.844;2023-04-29T06:31:30;12.30;86.60
69382;DHT22;56560;50.692;12.844;2023-04-29T06:33:56;12.40;86.00
69382;DHT22;56560;50.692;12.844;2023-04-29T06:36:21;12.50;86.10
69382;DHT22;56560;50.692;12.844;2023-04-29T06:38:47;12.40;86.40
69382;DHT22;56560;50.692;12.844;2023-04-29T06:41:13;12.30;85.70
69382;DHT22;56560;50.692;12.844;2023-04-29T06:43:38;12.10;86.90
69382;DHT22;56560;50.692;12.844;2023-04-29T06:46:05;12.00;87.20
69382;DHT22;56560;50.692;12.844;2023-04-29T06:48:31;11.90;87.60
69382;DHT22;56560;50.692;12.844;2023-04-29T06:50:57;11.90;87.50
69382;DHT22;56560;50.692;12.844;2023-04-29T06:53:23;11.90;87.50
69382;DHT22;56560;50.692;12.844;2023-04-29T06:55:49;11.90;87.90
69382;DHT22;56560;50.692;12.844;2023-04-29T06:58:16;12.00;87.60
69382;DHT22;56560;50.692;12.844;2023-04-29T07:00:46;12.00;87.70
69382;DHT22;56560;50.692;12.844;2023-04-29T07:03:13;12.00;88.00
69382;DHT22;56560;50.692;12.844;2023-04-29T07:05:39;12.10;87.80
69382;DHT22;56560;50.692;12.844;2023-04-29T07:08:06;12.30;87.40
69382;DHT22;56560;50.692;12.844;2023-04-29T07:10:32;12.50;85.80
69382;DHT22;56560;50.692;12.844;2023-04-29T07:12:58;12.40;85.30
69382;DHT22;56560;50.692;12.844;2023-04-29T07:15:25;12.40;86.10
69382;DHT22;56560;50.692;12.844;2023-04-29T07:17:51;12.60;85.40
69382;DHT22;56560;50.692;12.844;2023-04-29T07:20:17;12.60;84.40
69382;DHT22;56560;50.692;12.844;2023-04-29T07:22:43;12.70;84.30
69382;DHT22;56560;50.692;12.844;2023-04-29T07:25:09;12.80;83.40
69382;DHT22;56560;50.692;12.844;2023-04-29T07:27:35;12.90;83.20
69382;DHT22;56560;50.692;12.844;2023-04-29T07:30:01;12.90;82.90
69382;DHT22;56560;50.692;12.844;2023-04-29T07:32:27;13.00;82.80
69382;DHT22;56560;50.692;12.844;2023-04-29T07:34:53;13.20;82.10
69382;DHT22;56560;50.692;12.844;2023-04-29T07:37:19;13.50;81.40
69382;DHT22;56560;50.692;12.844;2023-04-29T07:39:44;13.70;81.20
69382;DHT22;56560;50.692;12.844;2023-04-29T07:42:10;13.90;80.60
69382;DHT22;56560;50.692;12.844;2023-04-29T07:44:36;14.20;79.50
69382;DHT22;56560;50.692;12.844;2023-04-29T07:47:01;14.40;77.20
69382;DHT22;56560;50.692;12.844;2023-04-29T07:49:27;14.30;76.50
69382;DHT22;56560;50.692;12.844;2023-04-29T07:51:53;14.00;77.30
69382;DHT22;56560;50.692;12.844;2023-04-29T07:54:18;13.80;78.10
69382;DHT22;56560;50.692;12.844;2023-04-29T07:56:44;13.80;78.50
69382;DHT22;56560;50.692;12.844;2023-04-29T07:59:10;13.70;79.20
69382;DHT22;56560;50.692;12.844;2023-04-29T08:01:36;13.70;80.40
69382;DHT22;56560;50.692;12.844;2023-04-29T08:04:02;13.60;79.40
69382;DHT22;56560;50.692;12.844;2023-04-29T08:06:28;13.70;79.30
69382;DHT22;56560;50.692;12.844;2023-04-29T08:08:55;13.60;79.80
69382;DHT22;56560;50.692;12.844;2023-04-29T08:11:21;13.50;80.60
69382;DHT22;56560;50.692;12.844;2023-04-29T08:13:49;13.60;80.80
69382;DHT22;56560;50.692;12.844;2023-04-29T08:16:15;13.70;79.60
69382;DHT22;56560;50.692;12.844;2023-04-29T08:18:41;13.70;79.60
69382;DHT22;56560;50.692;12.844;2023-04-29T08:21:07;13.70;80.30
69382;DHT22;56560;50.692;12.844;2023-04-29T08:23:33;13.70;79.60
69382;DHT22;56560;50.692;12.844;2023-04-29T08:26:00;13.60;79.20
69382;DHT22;56560;50.692;12.844;2023-04-29T08:28:31;13.40;79.60
69382;DHT22;56560;50.692;12.844;2023-04-29T08:30:57;13.20;80.20
69382;DHT22;56560;50.692;12.844;2023-04-29T08:33:23;13.20;80.20
69382;DHT22;56560;50.692;12.844;2023-04-29T08:35:48;13.10;81.40
69382;DHT22;56560;50.692;12.844;2023-04-29T08:38:21;13.00;80.70
69382;DHT22;56560;50.692;12.844;2023-04-29T08:40:47;12.90;79.90
69382;DHT22;56560;50.692;12.844;2023-04-29T08:43:13;12.70;80.80
69382;DHT22;56560;50.692;12.844;2023-04-29T08:45:43;12.50;81.00
69382;DHT22;56560;50.692;12.844;2023-04-29T08:48:09;12.40;82.40
69382;DHT22;56560;50.692;12.844;2023-04-29T08:50:39;12.30;82.90
69382;DHT22;56560;50.692;12.844;2023-04-29T08:53:06;12.30;83.20
69382;DHT22;56560;50.692;12.844;2023-04-29T08:55:43;12.30;83.30
69382;DHT22;56560;50.692;12.844;2023-04-29T08:58:09;12.30;84.10
69382;DHT22;56560;50.692;12.844;2023-04-29T09:00:35;12.30;84.00
69382;DHT22;56560;50.692;12.844;2023-04-29T09:03:21;12.30;84.10
69382;DHT22;56560;50.692;12.844;2023-04-29T09:05:52;12.30;84.60
69382;DHT22;56560;50.692;12.844;2023-04-29T09:08:22;12.40;84.40
69382;DHT22;56560;50.692;12.844;2023-04-29T09:10:50;12.50;83.10
69382;DHT22;56560;50.692;12.844;2023-04-29T09:15:48;12.70;82.30
69382;DHT22;56560;50.692;12.844;2023-04-29T09:18:47;12.90;82.50
69382;DHT22;56560;50.692;12.844;2023-04-29T09:21:16;13.20;80.20
69382;DHT22;56560;50.692;12.844;2023-04-29T09:23:43;13.40;79.30
69382;DHT22;56560;50.692;12.844;2023-04-29T09:26:08;13.60;78.00
69382;DHT22;56560;50.692;12.844;2023-04-29T09:28:34;13.50;78.00
69382;DHT22;56560;50.692;12.844;2023-04-29T09:31:03;13.20;79.10
69382;DHT22;56560;50.692;12.844;2023-04-29T09:33:31;12.90;80.30
69382;DHT22;56560;50.692;12.844;2023-04-29T09:35:57;12.80;80.50
69382;DHT22;56560;50.692;12.844;2023-04-29T09:38:22;12.60;81.40
69382;DHT22;56560;50.692;12.844;2023-04-29T09:40:48;12.70;81.80
69382;DHT22;56560;50.692;12.844;2023-04-29T09:43:16;12.80;81.90
69382;DHT22;56560;50.692;12.844;2023-04-29T09:45:44;13.00;80.80
69382;DHT22;56560;50.692;12.844;2023-04-29T09:48:12;13.10;80.60
69382;DHT22;56560;50.692;12.844;2023-04-29T09:50:39;13.20;81.10
69382;DHT22;56560;50.692;12.844;2023-04-29T09:53:07;13.30;80.20
69382;DHT22;56560;50.692;12.844;2023-04-29T09:55:59;13.40;79.60
69382;DHT22;56560;50.692;12.844;2023-04-29T09:58:33;13.40;78.90
69382;DHT22;56560;50.692;12.844;2023-04-29T10:01:03;13.50;78.50
69382;DHT22;56560;50.692;12.844;2023-04-29T10:03:32;13.70;77.80
69382;DHT22;56560;50.692;12.844;2023-04-29T10:06:07;14.10;76.60
69382;DHT22;56560;50.692;12.844;2023-04-29T10:08:35;14.40;75.40
69382;DHT22;56560;50.692;12.844;2023-04-29T10:11:02;14.60;74.00
69382;DHT22;56560;50.692;12.844;2023-04-29T10:13:28;14.60;75.20
69382;DHT22;56560;50.692;12.844;2023-04-29T10:16:27;14.50;74.60
69382;DHT22;56560;50.692;12.844;2023-04-29T10:18:55;14.30;74.70
69382;DHT22;56560;50.692;12.844;2023-04-29T10:21:27;14.00;75.30
69382;DHT22;56560;50.692;12.844;2023-04-29T10:23:57;13.90;76.40
69382;DHT22;56560;50.692;12.844;2023-04-29T10:26:27;13.80;77.20
69382;DHT22;56560;50.692;12.844;2023-04-29T10:28:57;13.70;76.60
69382;DHT22;56560;50.692;12.844;2023-04-29T10:31:27;13.60;77.30
69382;DHT22;56560;50.692;12.844;2023-04-29T10:33:57;13.80;77.10
69382;DHT22;56560;50.692;12.844;2023-04-29T10:36:27;14.20;76.40
69382;DHT22;56560;50.692;12.844;2023-04-29T10:38:57;14.70;73.10
69382;DHT22;56560;50.692;12.844;2023-04-29T10:41:33;15.50;71.40
69382;DHT22;56560;50.692;12.844;2023-04-29T10:44:01;16.50;68.10
69382;DHT22;56560;50.692;12.844;2023-04-29T10:46:28;17.40;66.90
69382;DHT22;56560;50.692;12.844;2023-04-29T10:49:02;18.10;64.30
69382;DHT22;56560;50.692;12.844;2023-04-29T10:51:39;18.10;62.70
69382;DHT22;56560;50.692;12.844;2023-04-29T10:54:06;18.10;62.20
69382;DHT22;56560;50.692;12.844;2023-04-29T10:59:09;16.40;65.40
69382;DHT22;56560;50.692;12.844;2023-04-29T11:04:09;14.80;71.20
69382;DHT22;56560;50.692;12.844;2023-04-29T11:09:12;13.50;75.20
69382;DHT22;56560;50.692;12.844;2023-04-29T11:14:49;13.10;77.90
69382;DHT22;56560;50.692;12.844;2023-04-29T11:17:17;12.90;77.80
69382;DHT22;56560;50.692;12.844;2023-04-29T11:19:51;12.80;77.10
69382;DHT22;56560;50.692;12.844;2023-04-29T11:24:49;12.80;78.90
69382;DHT22;56560;50.692;12.844;2023-04-29T11:27:17;12.70;78.80
69382;DHT22;56560;50.692;12.844;2023-04-29T11:29:48;12.80;79.00
69382;DHT22;56560;50.692;12.844;2023-04-29T11:32:14;12.90;78.40
69382;DHT22;56560;50.692;12.844;2023-04-29T11:34:40;13.00;77.60
69382;DHT22;56560;50.692;12.844;2023-04-29T11:37:06;13.20;77.40
69382;DHT22;56560;50.692;12.844;2023-04-29T11:39:33;13.30;76.40
69382;DHT22;56560;50.692;12.844;2023-04-29T11:42:06;13.20;75.90
69382;DHT22;56560;50.692;12.844;2023-04-29T11:44:35;13.20;77.20
69382;DHT22;56560;50.692;12.844;2023-04-29T11:47:02;13.30;77.30
69382;DHT22;56560;50.692;12.844;2023-04-29T11:49:34;13.30;76.50
69382;DHT22;56560;50.692;12.844;2023-04-29T11:52:02;13.30;76.20
69382;DHT22;56560;50.692;12.844;2023-04-29T11:54:31;13.30;76.20
69382;DHT22;56560;50.692;12.844;2023-04-29T11:56:59;13.30;76.80
69382;DHT22;56560;50.692;12.844;2023-04-29T11:59:30;13.10;75.80
69382;DHT22;56560;50.692;12.844;2023-04-29T12:01:57;12.90;76.50
69382;DHT22;56560;50.692;12.844;2023-04-29T12:04:23;12.80;77.40
69382;DHT22;56560;50.692;12.844;2023-04-29T12:06:52;12.70;78.70
69382;DHT22;56560;50.692;12.844;2023-04-29T12:09:18;12.80;78.10
69382;DHT22;56560;50.692;12.844;2023-04-29T12:11:44;13.00;77.70
69382;DHT22;56560;50.692;12.844;2023-04-29T12:14:14;13.10;76.80
69382;DHT22;56560;50.692;12.844;2023-04-29T12:16:40;13.20;76.10
69382;DHT22;56560;50.692;12.844;2023-04-29T12:19:06;13.20;74.90
69382;DHT22;56560;50.692;12.844;2023-04-29T12:21:34;13.30;75.10
69382;DHT22;56560;50.692;12.844;2023-04-29T12:24:02;13.30;74.30
69382;DHT22;56560;50.692;12.844;2023-04-29T12:26:29;13.40;73.80
69382;DHT22;56560;50.692;12.844;2023-04-29T12:28:56;13.50;73.90
69382;DHT22;56560;50.692;12.844;2023-04-29T12:31:25;13.70;73.20
69382;DHT22;56560;50.692;12.844;2023-04-29T12:33:56;13.90;72.70
69382;DHT22;56560;50.692;12.844;2023-04-29T12:36:22;14.20;71.70
69382;DHT22;56560;50.692;12.844;2023-04-29T12:38:47;14.20;72.30
69382;DHT22;56560;50.692;12.844;2023-04-29T12:41:14;14.30;72.00
69382;DHT22;56560;50.692;12.844;2023-04-29T12:43:41;14.30;72.20
69382;DHT22;56560;50.692;12.844;2023-04-29T12:46:08;14.00;71.20
69382;DHT22;56560;50.692;12.844;2023-04-29T12:48:35;13.70;72.30
69382;DHT22;56560;50.692;12.844;2023-04-29T12:51:03;13.60;72.90
69382;DHT22;56560;50.692;12.844;2023-04-29T12:53:29;13.50;73.20
69382;DHT22;56560;50.692;12.844;2023-04-29T12:55:55;13.50;73.20
69382;DHT22;56560;50.692;12.844;2023-04-29T12:58:21;14.00;72.10
69382;DHT22;56560;50.692;12.844;2023-04-29T13:00:47;14.60;68.60
69382;DHT22;56560;50.692;12.844;2023-04-29T13:03:13;15.20;66.90
69382;DHT22;56560;50.692;12.844;2023-04-29T13:05:39;15.50;65.50
69382;DHT22;56560;50.692;12.844;2023-04-29T13:08:05;15.60;64.50
69382;DHT22;56560;50.692;12.844;2023-04-29T13:10:33;16.00;65.10
69382;DHT22;56560;50.692;12.844;2023-04-29T13:12:59;16.30;63.10
69382;DHT22;56560;50.692;12.844;2023-04-29T13:15:25;16.30;62.60
69382;DHT22;56560;50.692;12.844;2023-04-29T13:17:52;16.10;62.90
69382;DHT22;56560;50.692;12.844;2023-04-29T13:20:17;15.30;64.40
69382;DHT22;56560;50.692;12.844;2023-04-29T13:22:44;14.70;67.10
69382;DHT22;56560;50.692;12.844;2023-04-29T13:25:10;14.50;67.80
69382;DHT22;56560;50.692;12.844;2023-04-29T13:27:40;14.60;67.50
69382;DHT22;56560;50.692;12.844;2023-04-29T13:30:06;15.40;65.50
69382;DHT22;56560;50.692;12.844;2023-04-29T13:32:32;16.00;64.50
69382;DHT22;56560;50.692;12.844;2023-04-29T13:34:57;16.10;62.90
69382;DHT22;56560;50.692;12.844;2023-04-29T13:37:23;15.60;63.50
69382;DHT22;56560;50.692;12.844;2023-04-29T13:39:49;15.30;65.10
69382;DHT22;56560;50.692;12.844;2023-04-29T13:42:14;15.00;64.90
69382;DHT22;56560;50.692;12.844;2023-04-29T13:44:40;14.90;65.20
69382;DHT22;56560;50.692;12.844;2023-04-29T13:47:15;15.00;64.90
69382;DHT22;56560;50.692;12.844;2023-04-29T13:49:41;15.20;64.80
69382;DHT22;56560;50.692;12.844;2023-04-29T13:52:10;15.30;64.50
69382;DHT22;56560;50.692;12.844;2023-04-29T13:54:37;15.30;64.50
69382;DHT22;56560;50.692;12.844;2023-04-29T13:57:03;15.10;65.00
69382;DHT22;56560;50.692;12.844;2023-04-29T13:59:33;14.70;66.10
69382;DHT22;56560;50.692;12.844;2023-04-29T14:02:00;14.20;66.30
69382;DHT22;56560;50.692;12.844;2023-04-29T14:04:26;13.90;67.50
69382;DHT22;56560;50.692;12.844;2023-04-29T14:06:53;13.50;69.30
69382;DHT22;56560;50.692;12.844;2023-04-29T14:09:19;13.60;69.70
69382;DHT22;56560;50.692;12.844;2023-04-29T14:11:46;13.80;69.00
69382;DHT22;56560;50.692;12.844;2023-04-29T14:14:12;13.90;68.90
69382;DHT22;56560;50.692;12.844;2023-04-29T14:16:38;13.80;68.40
69382;DHT22;56560;50.692;12.844;2023-04-29T14:19:04;13.70;69.40
69382;DHT22;56560;50.692;12.844;2023-04-29T14:21:30;13.80;69.00
69382;DHT22;56560;50.692;12.844;2023-04-29T14:23:56;13.90;68.40
69382;DHT22;56560;50.692;12.844;2023-04-29T14:26:22;14.00;67.30
69382;DHT22;56560;50.692;12.844;2023-04-29T14:28:48;14.10;67.20
69382;DHT22;56560;50.692;12.844;2023-04-29T14:31:39;13.80;68.00
69382;DHT22;56560;50.692;12.844;2023-04-29T14:34:06;13.80;67.60
69382;DHT22;56560;50.692;12.844;2023-04-29T14:36:31;13.90;66.70
69382;DHT22;56560;50.692;12.844;2023-04-29T14:38:58;14.00;65.70
69382;DHT22;56560;50.692;12.844;2023-04-29T14:41:25;14.00;64.60
69382;DHT22;56560;50.692;12.844;2023-04-29T14:43:50;13.90;66.00
69382;DHT22;56560;50.692;12.844;2023-04-29T14:46:16;13.90;65.70
69382;DHT22;56560;50.692;12.844;2023-04-29T14:48:41;13.90;65.80
69382;DHT22;56560;50.692;12.844;2023-04-29T14:51:07;14.00;65.20
69382;DHT22;56560;50.692;12.844;2023-04-29T14:53:33;13.90;67.00
69382;DHT22;56560;50.692;12.844;2023-04-29T14:55:59;13.70;66.60
69382;DHT22;56560;50.692;12.844;2023-04-29T14:58:25;13.60;67.30
69382;DHT22;56560;50.692;12.844;2023-04-29T15:00:51;13.50;67.90
69382;DHT22;56560;50.692;12.844;2023-04-29T15:03:17;13.40;68.30
69382;DHT22;56560;50.692;12.844;2023-04-29T15:05:43;13.10;68.80
69382;DHT22;56560;50.692;12.844;2023-04-29T15:08:10;13.10;69.80
69382;DHT22;56560;50.692;12.844;2023-04-29T15:10:35;13.30;69.30
69382;DHT22;56560;50.692;12.844;2023-04-29T15:13:01;13.40;69.70
69382;DHT22;56560;50.692;12.844;2023-04-29T15:15:27;13.90;68.90
69382;DHT22;56560;50.692;12.844;2023-04-29T15:17:53;14.50;67.10
69382;DHT22;56560;50.692;12.844;2023-04-29T15:20:19;15.10;65.20
69382;DHT22;56560;50.692;12.844;2023-04-29T15:22:45;15.30;64.00
69382;DHT22;56560;50.692;12.844;2023-04-29T15:25:11;15.40;63.50
69382;DHT22;56560;50.692;12.844;2023-04-29T15:27:37;15.30;62.90
69382;DHT22;56560;50.692;12.844;2023-04-29T15:30:04;15.10;63.90
69382;DHT22;56560;50.692;12.844;2023-04-29T15:32:30;15.00;63.50
69382;DHT22;56560;50.692;12.844;2023-04-29T15:35:05;14.80;64.40
69382;DHT22;56560;50.692;12.844;2023-04-29T15:37:31;14.60;64.40
69382;DHT22;56560;50.692;12.844;2023-04-29T15:39:58;14.30;65.00
69382;DHT22;56560;50.692;12.844;2023-04-29T15:42:24;14.00;66.20
69382;DHT22;56560;50.692;12.844;2023-04-29T15:44:50;13.80;66.20
69382;DHT22;56560;50.692;12.844;2023-04-29T15:47:17;13.40;67.90